createdAt,value
2023-02-01T08:49:34.025Z,5
2023-02-01T20:04:33.412Z,15
2023-02-01T20:09:33.457Z,13
2023-02-01T20:14:33.489Z,14
2023-02-01T20:19:33.412Z,23
2023-02-01T20:24:33.489Z,14
2023-02-01T20:29:34.284Z,15
2023-02-01T20:34:34.291Z,10
2023-02-01T20:39:34.298Z,12
2023-02-01T20:44:34.295Z,12
2023-02-01T20:49:34.390Z,10
2023-02-01T20:54:34.309Z,13
2023-02-01T20:59:34.370Z,7
2023-02-01T21:04:34.367Z,10
2023-02-01T21:09:34.328Z,13
2023-02-01T21:14:34.381Z,13
2023-02-01T21:19:34.413Z,12
2023-02-01T21:24:34.405Z,12
2023-02-01T21:29:34.331Z,11
2023-02-01T21:34:34.331Z,12
2023-02-01T21:39:34.396Z,13
2023-02-01T21:44:34.338Z,10
2023-02-01T21:49:34.334Z,12
2023-02-01T21:54:34.329Z,8
2023-02-01T21:59:34.391Z,8
2023-02-01T22:04:34.434Z,7
2023-02-01T22:09:34.336Z,9
2023-02-01T22:14:34.396Z,7
2023-02-01T22:19:34.399Z,8
2023-02-01T22:24:34.393Z,7
2023-02-01T22:29:34.430Z,8
2023-02-01T22:34:34.427Z,4
2023-02-01T22:39:34.339Z,4
2023-02-01T22:44:34.392Z,5
2023-02-01T22:49:34.346Z,4
2023-02-01T22:54:34.397Z,7
2023-02-01T22:59:34.393Z,8
2023-02-01T23:04:34.346Z,4
2023-02-01T23:09:34.383Z,5
2023-02-01T23:14:34.317Z,8
2023-02-01T23:19:34.333Z,7
2023-02-01T23:24:34.380Z,4
2023-02-01T23:29:34.383Z,5
2023-02-01T23:34:34.336Z,4
2023-02-01T23:39:34.399Z,5
2023-02-01T23:44:34.339Z,2
2023-02-01T23:49:34.425Z,5
2023-02-01T23:54:34.381Z,5
2023-02-01T23:59:34.340Z,7
